ADDS TAF Board (Experimental) INFO Settings
IDs: Format: Expanded Condensed

KLAS - Las Vegas/McCarran I, NV, US

Issued at 2035 UTC 03 Jul 2015
Updated at: 2200 UTC 03 Jul 2015
Time2156Z 03/22Z 03/23Z 04/00Z 04/01Z 04/02Z 04/03Z 04/04Z 04/05Z 04/06Z 04/07Z 04/08Z 04/09Z 04/10Z
Type OBS PRVL PRVL PRVL PRVL PRVL PRVL PRVL PRVL PRVL PRVL PRVL PRVL PRVL
VIS 10 >6 >6 >6 >6 >6 >6 >6 >6 >6 >6 >6 >6 >6
CIG 250 250 250 250 250 250 250 250 250 250 250 250 250 250
Cover BKN BKN BKN BKN BKN BKN BKN BKN BKN BKN BKN BKN BKN BKN
FltCat VFR VFR VFR VFR VFR VFR VFR VFR VFR VFR VFR VFR VFR VFR
WX -- -- -- -- -- -- -- -- -- -- -- -- -- --
WDir 210 190 190 190 190 190 210 210 210 210 210 210 210 210
WSpd 4 12 12 12 12 12 8 8 8 8 8 8 8 8
WGst -- 20 20 20 20 20 -- -- -- -- -- -- -- --
R01/19
XWnd 0 -3 -3 -3 -3 -3 1 1 1 1 1 1 1 1
XGst -- -5 -5 -5 -5 -5 -- -- -- -- -- -- -- --
HWnd -4 -12 -12 -12 -12 -12 -8 -8 -8 -8 -8 -8 -8 -8
HGst -- -19 -19 -19 -19 -19 -- -- -- -- -- -- -- --
R07/25
XWnd -3 -12 -12 -12 -12 -12 -7 -7 -7 -7 -7 -7 -7 -7
XGst -- -20 -20 -20 -20 -20 -- -- -- -- -- -- -- --
HWnd -2 -2 -2 -2 -2 -2 -4 -4 -4 -4 -4 -4 -4 -4
HGst -- -3 -3 -3 -3 -3 -- -- -- -- -- -- -- --

NOTE: TEMPO conditions in [brackets]. Keep in mind TEMPO conditions might be better (lower impact) than prevailing conditions.

Raw TAF
KLAS 032035Z 0321/0418 19012G20KT P6SM SCT150 BKN250
  FM040300 21008KT P6SM SCT150 BKN250
  FM041400 VRB05KT P6SM FEW120


Raw METAR
KLAS 032156Z 21004KT 10SM SCT120 BKN250 42/03 A2976 RMK AO2 SLP044 ACC N AND E T04170033
KLAS 032056Z 21012KT 10SM FEW120 BKN250 41/07 A2979 RMK AO2 SLP052 CB DSNT NW ACC N AND E T04110072 58022
KLAS 031956Z 19006G19KT 10SM FEW120 BKN250 40/10 A2982 RMK AO2 SLP062 CB DSNT NW TCU DSNT N ACC NE T04000100
KLAS 031856Z 17009KT 10SM FEW120 BKN250 39/11 A2984 RMK AO2 SLP071 ACC NE AND W T03890106

METAR Board
Radar Display
Forecast Discussion

TAF Board Legend

Potential Impact
Threat None Slight Moderate High
Visibility (sm) ≥5.1 5.1>X≥3 3>X≥1 <1
Ceiling (100 ft) ≥30.1 30.1>X≥10 10>X≥5 <5
Wind Speed (kt) <10 10≤X<20 20≤X<30 ≥30
Wind Gust (kt) <15 15≤X<25 25≤X<35 ≥35
Weather No Wx Reported VCTS,-TS,-FZRA,SN TS,FZRA +TS,+FZRA,+SN